Time;durP1;ratioP1;P1;durP2;ratioP2;P2;SDS_P1;SDS_P2;PMS_P1;PMS_P2;Temp;Humidity;BMP_temperature;BMP_pressure;BME280_temperature;BME280_humidity;BME280_pressure;Samples;Min_cycle;Max_cycle;Signal;HPM_P1;HPM_P2
2021/12/06 00:01:06;;;;;;;37.13;22.83;;;4.60;99.90;;;;;;5097660;28;20051;-63
2021/12/06 00:03:48;;;;;;;34.13;22.88;;;4.70;99.90;;;;;;5097807;28;20035;-63
2021/12/06 00:06:16;;;;;;;36.05;22.90;;;4.60;99.90;;;;;;5097900;28;20332;-63
2021/12/06 00:08:42;;;;;;;35.20;22.52;;;4.60;99.90;;;;;;5097479;28;20024;-62
2021/12/06 00:11:09;;;;;;;36.22;22.48;;;4.70;99.90;;;;;;5095891;28;20132;-63
2021/12/06 00:13:42;;;;;;;35.55;22.73;;;4.80;99.90;;;;;;5097881;28;20040;-63
2021/12/06 00:16:15;;;;;;;33.92;21.45;;;4.80;99.90;;;;;;5097259;28;20040;-63
2021/12/06 00:18:41;;;;;;;32.38;21.20;;;4.90;99.90;;;;;;5097861;28;20040;-63
2021/12/06 00:21:09;;;;;;;32.72;22.67;;;5.00;99.90;;;;;;5079752;28;20042;-62
2021/12/06 00:23:35;;;;;;;33.92;21.42;;;5.10;99.90;;;;;;5097616;28;20044;-63
2021/12/06 00:26:02;;;;;;;31.48;20.70;;;5.10;99.90;;;;;;5097233;28;20032;-62
2021/12/06 00:28:28;;;;;;;31.27;21.27;;;5.20;99.90;;;;;;5097308;28;20030;-63
2021/12/06 00:30:55;;;;;;;33.60;21.92;;;5.20;99.90;;;;;;5097225;28;20032;-63
2021/12/06 00:33:24;;;;;;;28.45;20.25;;;5.20;99.90;;;;;;5098057;28;20020;-63
2021/12/06 00:35:51;;;;;;;30.70;20.65;;;5.30;99.90;;;;;;5096714;28;20036;-63
2021/12/06 00:38:17;;;;;;;29.42;19.65;;;5.30;99.90;;;;;;5096450;28;20314;-63
2021/12/06 00:40:46;;;;;;;29.35;19.88;;;5.40;99.90;;;;;;5097126;28;20035;-63
2021/12/06 00:43:12;;;;;;;28.65;19.63;;;5.30;99.90;;;;;;5097016;28;20049;-63
2021/12/06 00:45:38;;;;;;;30.35;20.70;;;5.20;99.90;;;;;;5096998;28;20395;-63
2021/12/06 00:48:05;;;;;;;30.40;19.15;;;5.20;99.90;;;;;;5096261;28;20178;-62
2021/12/06 00:50:34;;;;;;;29.10;19.65;;;5.20;99.90;;;;;;5096270;28;20314;-63
2021/12/06 00:53:00;;;;;;;28.42;19.83;;;5.10;99.90;;;;;;5096962;28;20039;-63
2021/12/06 00:55:26;;;;;;;31.20;19.45;;;4.90;99.90;;;;;;5096903;28;20303;-63
2021/12/06 00:57:53;;;;;;;28.55;19.00;;;4.70;99.90;;;;;;5096026;28;20115;-63
2021/12/06 01:00:35;;;;;;;29.85;19.98;;;4.70;99.90;;;;;;5079430;28;20040;-64
2021/12/06 01:03:10;;;;;;;31.15;20.67;;;4.80;99.90;;;;;;5096053;28;20024;-63
2021/12/06 01:05:37;;;;;;;31.20;20.67;;;4.80;99.90;;;;;;5096784;28;20024;-63
2021/12/06 01:08:03;;;;;;;31.83;20.40;;;4.80;99.90;;;;;;5096315;28;20032;-63
2021/12/06 01:10:32;;;;;;;31.88;19.55;;;4.90;99.90;;;;;;5095904;28;20131;-62
2021/12/06 01:12:59;;;;;;;32.35;20.20;;;5.00;99.90;;;;;;5097084;28;20472;-63
2021/12/06 01:15:26;;;;;;;33.30;20.55;;;5.10;99.90;;;;;;5096525;28;20028;-63
2021/12/06 01:17:52;;;;;;;32.17;19.45;;;5.20;99.90;;;;;;5096415;28;20040;-62
2021/12/06 01:20:23;;;;;;;31.15;19.30;;;5.20;99.90;;;;;;5095919;28;20350;-63
2021/12/06 01:23:05;;;;;;;29.85;19.70;;;5.20;99.90;;;;;;5097934;28;20111;-63
2021/12/06 01:25:46;;;;;;;28.63;19.60;;;5.20;99.90;;;;;;5100230;28;20123;-64
2021/12/06 01:28:33;;;;;;;31.60;18.45;;;5.20;99.90;;;;;;5099886;28;20028;-63
2021/12/06 01:31:12;;;;;;;28.20;18.27;;;5.20;99.90;;;;;;5099689;28;20136;-63
2021/12/06 01:41:46;;;;;;;28.85;17.77;;;5.50;99.90;;;;;;5099595;28;20402;-63
2021/12/06 01:44:19;;;;;;;26.73;18.33;;;5.60;99.90;;;;;;5100336;28;20047;-62
2021/12/06 01:46:57;;;;;;;28.95;18.75;;;5.60;99.90;;;;;;5083436;28;20081;-64
2021/12/06 01:49:27;;;;;;;25.77;17.70;;;5.80;99.90;;;;;;5100151;28;20028;-63
2021/12/06 01:51:55;;;;;;;29.58;18.52;;;5.80;99.90;;;;;;5100469;28;20309;-63
2021/12/06 01:54:21;;;;;;;27.92;17.90;;;5.90;99.90;;;;;;5100095;28;20098;-62
2021/12/06 01:56:49;;;;;;;27.85;19.52;;;5.90;99.90;;;;;;5099269;28;20032;-63
2021/12/06 01:59:16;;;;;;;26.88;18.95;;;5.90;99.90;;;;;;5099096;28;20028;-63
2021/12/06 02:01:42;;;;;;;28.45;19.65;;;5.90;99.90;;;;;;5099137;28;20335;-63
2021/12/06 02:04:08;;;;;;;30.60;20.10;;;5.90;99.90;;;;;;5098999;28;20020;-63
2021/12/06 02:06:36;;;;;;;30.13;20.20;;;5.90;99.90;;;;;;5099816;28;20032;-63
2021/12/06 02:09:08;;;;;;;31.65;21.20;;;5.90;99.90;;;;;;5099805;28;20059;-63
2021/12/06 02:11:37;;;;;;;35.08;21.67;;;5.90;99.90;;;;;;5099055;28;20294;-63
2021/12/06 02:19:34;;;;;;;31.80;21.65;;;5.80;99.90;;;;;;5100232;28;20044;-62
2021/12/06 02:22:01;;;;;;;35.72;23.15;;;5.90;99.90;;;;;;5082590;28;20031;-63
2021/12/06 02:24:30;;;;;;;33.65;21.55;;;5.90;99.90;;;;;;5098736;28;20024;-62
2021/12/06 02:26:58;;;;;;;33.83;22.40;;;5.80;99.90;;;;;;5099706;28;20059;-62
2021/12/06 02:29:24;;;;;;;33.83;22.13;;;5.80;99.90;;;;;;5099376;28;20024;-62
2021/12/06 02:31:50;;;;;;;32.78;21.70;;;5.80;99.90;;;;;;5098575;28;20112;-63
2021/12/06 02:34:16;;;;;;;36.22;22.73;;;5.80;99.90;;;;;;5098714;28;20260;-62
2021/12/06 02:36:45;;;;;;;34.95;22.63;;;5.70;99.90;;;;;;5099221;28;20047;-62
2021/12/06 02:39:18;;;;;;;33.30;22.95;;;5.80;99.90;;;;;;5099156;28;20039;-63
2021/12/06 02:41:46;;;;;;;35.28;23.85;;;5.80;99.90;;;;;;5099251;28;20035;-63
2021/12/06 02:44:12;;;;;;;35.47;23.90;;;5.70;99.90;;;;;;5099144;28;20032;-63
2021/12/06 02:46:38;;;;;;;37.17;23.67;;;5.70;99.90;;;;;;5099394;28;20298;-64
2021/12/06 02:49:06;;;;;;;34.78;23.30;;;5.50;99.90;;;;;;5099115;28;20032;-64
2021/12/06 02:51:32;;;;;;;38.72;24.13;;;5.50;99.90;;;;;;5099205;28;20272;-64
2021/12/06 02:53:58;;;;;;;35.75;23.25;;;5.50;99.90;;;;;;5082047;28;20070;-63
2021/12/06 02:56:39;;;;;;;37.95;24.42;;;5.40;99.90;;;;;;5097947;28;20344;-63
2021/12/06 02:59:09;;;;;;;42.30;24.80;;;5.40;99.90;;;;;;5098280;28;20085;-64
2021/12/06 03:01:44;;;;;;;43.45;26.52;;;5.40;99.90;;;;;;5097959;28;20035;-63
2021/12/06 03:04:10;;;;;;;41.40;25.48;;;5.40;99.90;;;;;;5098050;28;20058;-64
2021/12/06 03:06:37;;;;;;;44.00;26.38;;;5.40;99.90;;;;;;5098730;28;20035;-63
2021/12/06 03:09:16;;;;;;;46.92;27.88;;;5.40;99.90;;;;;;5098927;28;20354;-63
2021/12/06 03:11:57;;;;;;;45.08;27.48;;;5.50;99.90;;;;;;5097840;28;20383;-63
2021/12/06 03:14:26;;;;;;;42.60;26.67;;;5.50;99.90;;;;;;5080982;28;20054;-64
2021/12/06 03:16:58;;;;;;;46.35;28.02;;;5.50;99.90;;;;;;5097546;28;20040;-64
2021/12/06 03:19:26;;;;;;;45.72;27.52;;;5.50;99.90;;;;;;5097532;28;20032;-63
2021/12/06 03:21:52;;;;;;;47.30;27.85;;;5.50;99.90;;;;;;5097642;28;20097;-63
2021/12/06 03:24:20;;;;;;;40.65;25.75;;;5.60;99.90;;;;;;5097602;28;20414;-64
2021/12/06 03:26:49;;;;;;;44.15;25.70;;;5.50;99.90;;;;;;5097505;28;20115;-63
2021/12/06 03:29:15;;;;;;;44.88;26.75;;;5.60;99.90;;;;;;5098189;28;20529;-63
2021/12/06 03:31:41;;;;;;;46.00;27.17;;;5.60;99.90;;;;;;5080661;28;20127;-63
2021/12/06 03:34:09;;;;;;;42.13;25.45;;;5.70;99.90;;;;;;5097374;28;20053;-63
2021/12/06 03:36:38;;;;;;;43.65;26.52;;;5.60;99.90;;;;;;5097318;28;20028;-64
2021/12/06 03:39:11;;;;;;;43.05;25.92;;;5.60;99.90;;;;;;5097251;28;20032;-63
2021/12/06 03:41:37;;;;;;;;;;;5.60;99.90;;;;;;5097697;28;20415;-63
2021/12/06 03:44:04;;;;;;;40.20;24.83;;;5.50;99.90;;;;;;5097589;28;19965;-63
2021/12/06 03:46:33;;;;;;;44.05;25.75;;;5.50;99.90;;;;;;5096969;28;20024;-64
2021/12/06 03:48:59;;;;;;;45.22;26.40;;;5.50;99.90;;;;;;5098264;28;20308;-64
2021/12/06 03:51:25;;;;;;;38.30;24.60;;;5.50;99.90;;;;;;5096980;28;20346;-63
2021/12/06 03:53:54;;;;;;;46.63;25.73;;;5.50;99.90;;;;;;5097056;28;20066;-63
2021/12/06 03:56:21;;;;;;;44.35;26.95;;;5.40;99.90;;;;;;5097682;28;20036;-63
2021/12/06 03:58:47;;;;;;;41.55;25.52;;;5.40;99.90;;;;;;5097694;28;20028;-64
2021/12/06 04:01:14;;;;;;;43.25;26.25;;;5.40;99.90;;;;;;5096875;28;20035;-64
2021/12/06 04:03:42;;;;;;;40.92;25.70;;;5.30;99.90;;;;;;5096928;28;20399;-63
2021/12/06 04:06:09;;;;;;;44.15;26.60;;;5.20;99.90;;;;;;5096742;28;20046;-63
2021/12/06 04:08:36;;;;;;;48.15;26.67;;;5.20;99.90;;;;;;5096704;28;20028;-63
2021/12/06 04:11:03;;;;;;;39.35;24.40;;;5.30;99.90;;;;;;5079889;28;20429;-63
2021/12/06 04:13:32;;;;;;;45.75;26.55;;;5.30;99.90;;;;;;5096686;28;20036;-63
2021/12/06 04:15:58;;;;;;;44.17;25.65;;;5.30;99.90;;;;;;5096602;28;20035;-63
2021/12/06 04:18:24;;;;;;;42.00;25.17;;;5.20;99.90;;;;;;5079805;28;20311;-63
2021/12/06 04:20:51;;;;;;;42.30;25.48;;;5.30;99.90;;;;;;5096468;28;20028;-62
2021/12/06 04:23:17;;;;;;;52.30;25.70;;;5.30;99.90;;;;;;5096502;28;20046;-64
2021/12/06 04:25:44;;;;;;;41.92;25.73;;;5.30;99.90;;;;;;5079646;28;20123;-63
2021/12/06 04:28:14;;;;;;;54.15;27.08;;;5.30;99.90;;;;;;5097494;28;20036;-63
2021/12/06 04:30:42;;;;;;;45.53;26.55;;;5.30;99.90;;;;;;5080590;28;20047;-63
2021/12/06 04:33:08;;;;;;;67.07;27.33;;;5.20;99.90;;;;;;5097262;28;20039;-63
2021/12/06 04:35:37;;;;;;;50.38;29.02;;;5.30;99.90;;;;;;5096277;28;20024;-63
2021/12/06 04:38:07;;;;;;;48.85;25.98;;;5.20;99.90;;;;;;5097317;28;20387;-64
2021/12/06 04:40:33;;;;;;;47.17;25.45;;;5.20;99.90;;;;;;5096252;28;20097;-63
2021/12/06 04:42:59;;;;;;;45.78;26.85;;;5.20;99.90;;;;;;5097109;28;20024;-63
2021/12/06 04:45:25;;;;;;;91.07;29.27;;;5.20;99.90;;;;;;5096206;28;20467;-63
2021/12/06 04:47:51;;;;;;;58.08;27.10;;;5.20;99.90;;;;;;5096253;28;20065;-64
2021/12/06 04:50:20;;;;;;;205.18;31.83;;;5.20;99.90;;;;;;5096210;28;20043;-63
2021/12/06 04:52:46;;;;;;;142.05;31.05;;;5.20;99.90;;;;;;5096264;28;20024;-63
2021/12/06 04:55:27;;;;;;;124.65;28.73;;;5.20;99.90;;;;;;5096151;28;20028;-63
2021/12/06 04:57:54;;;;;;;99.60;29.48;;;5.20;99.90;;;;;;5098587;28;20047;-63
2021/12/06 05:00:34;;;;;;;87.53;27.98;;;5.30;99.90;;;;;;5083454;28;20020;-63
2021/12/06 05:03:03;;;;;;;61.30;27.77;;;5.20;99.90;;;;;;5100411;28;20150;-63
2021/12/06 05:05:43;;;;;;;47.80;27.75;;;5.10;99.90;;;;;;5100244;28;20326;-63
2021/12/06 05:08:21;;;;;;;99.60;29.27;;;4.90;99.90;;;;;;5101314;28;20020;-63
2021/12/06 05:10:48;;;;;;;158.48;29.73;;;4.90;99.90;;;;;;5100224;28;20123;-63
2021/12/06 05:13:14;;;;;;;62.13;25.73;;;5.00;99.90;;;;;;5101501;28;20028;-63
2021/12/06 05:15:40;;;;;;;100.25;29.63;;;5.20;99.90;;;;;;5100875;28;20036;-63
2021/12/06 05:18:06;;;;;;;156.70;29.67;;;5.10;99.90;;;;;;5099735;28;20052;-63
2021/12/06 05:20:34;;;;;;;97.43;28.23;;;5.00;99.90;;;;;;5100922;28;20032;-63
2021/12/06 05:23:04;;;;;;;213.07;27.73;;;4.80;99.90;;;;;;5099917;28;20028;-63
2021/12/06 05:25:30;;;;;;;301.48;32.15;;;4.70;99.90;;;;;;5099816;28;20418;-63
2021/12/06 05:27:58;;;;;;;89.20;27.50;;;4.70;99.90;;;;;;5099902;28;20067;-64
2021/12/06 05:30:25;;;;;;;90.03;27.48;;;4.80;99.90;;;;;;5100472;28;20028;-63
2021/12/06 05:32:52;;;;;;;320.23;34.47;;;4.70;99.90;;;;;;5099760;28;20035;-63
2021/12/06 05:35:19;;;;;;;374.90;32.33;;;4.80;99.90;;;;;;5099693;28;20043;-63
2021/12/06 05:37:48;;;;;;;197.27;29.55;;;4.80;99.90;;;;;;5100854;28;20093;-63
2021/12/06 05:40:17;;;;;;;135.15;27.05;;;4.80;99.90;;;;;;5100351;28;20107;-64
2021/12/06 05:42:43;;;;;;;369.08;32.10;;;4.80;99.90;;;;;;5100481;28;20279;-63
2021/12/06 05:45:11;;;;;;;190.50;30.95;;;4.80;99.90;;;;;;5100422;28;20116;-63
2021/12/06 05:47:37;;;;;;;193.93;30.33;;;4.80;99.90;;;;;;5099820;28;20043;-63
2021/12/06 05:50:04;;;;;;;189.63;31.08;;;4.80;99.90;;;;;;5100456;28;20028;-63
2021/12/06 05:52:30;;;;;;;69.40;26.48;;;4.80;99.90;;;;;;5100440;28;20071;-63
2021/12/06 05:54:56;;;;;;;175.48;29.33;;;4.80;99.90;;;;;;5100101;28;20063;-62
2021/12/06 05:57:22;;;;;;;146.00;27.70;;;4.80;99.90;;;;;;5100344;28;20111;-63
2021/12/06 05:59:48;;;;;;;45.85;24.20;;;4.80;99.90;;;;;;5099227;28;20089;-63
2021/12/06 06:02:15;;;;;;;358.23;30.70;;;4.70;99.90;;;;;;5099699;28;20390;-62
2021/12/06 06:04:41;;;;;;;73.05;24.40;;;4.70;99.90;;;;;;5099617;28;20107;-62
2021/12/06 06:07:07;;;;;;;106.55;25.70;;;4.70;99.90;;;;;;5099738;28;20043;-63
2021/12/06 06:09:33;;;;;;;123.10;25.30;;;4.40;99.90;;;;;;5099650;28;20028;-62
2021/12/06 06:11:59;;;;;;;80.38;25.25;;;4.10;99.90;;;;;;5098901;28;20028;-63
2021/12/06 06:14:25;;;;;;;147.38;25.83;;;3.80;99.90;;;;;;5099524;28;20024;-62
2021/12/06 06:16:53;;;;;;;167.18;26.52;;;3.60;99.90;;;;;;5099339;28;20055;-62
2021/12/06 06:19:24;;;;;;;135.27;27.85;;;3.80;99.90;;;;;;5098694;28;20097;-63
2021/12/06 06:21:52;;;;;;;120.30;27.38;;;4.00;99.90;;;;;;5099445;28;20028;-62
2021/12/06 06:24:18;;;;;;;79.03;26.27;;;4.20;99.90;;;;;;5099287;28;20077;-64
2021/12/06 06:26:44;;;;;;;92.70;26.65;;;4.40;99.90;;;;;;5099155;28;20027;-63
2021/12/06 06:29:11;;;;;;;87.63;26.52;;;4.30;99.90;;;;;;5099274;28;20422;-63
2021/12/06 06:31:37;;;;;;;211.20;27.55;;;4.30;99.90;;;;;;5098604;28;20036;-64
2021/12/06 06:34:04;;;;;;;178.93;27.38;;;4.30;99.90;;;;;;5099358;28;20418;-65
2021/12/06 06:36:30;;;;;;;179.18;28.05;;;4.40;99.90;;;;;;5099180;28;20036;-64
2021/12/06 06:38:55;;;;;;;177.77;30.35;;;4.30;99.90;;;;;;5099139;28;20303;-64
2021/12/06 06:41:21;;;;;;;180.88;26.65;;;4.40;99.90;;;;;;5099079;28;20032;-64
2021/12/06 06:43:49;;;;;;;92.43;25.00;;;4.40;99.90;;;;;;5099339;28;20040;-65
2021/12/06 06:46:15;;;;;;;66.88;25.50;;;4.30;99.90;;;;;;5099068;28;20077;-63
2021/12/06 06:48:41;;;;;;;292.63;26.80;;;3.80;99.90;;;;;;5098335;28;20531;-63
2021/12/06 06:51:06;;;;;;;276.10;27.80;;;3.60;99.90;;;;;;5099090;28;20039;-63
2021/12/06 06:53:33;;;;;;;54.25;23.95;;;3.80;99.90;;;;;;5098922;28;20035;-63
2021/12/06 06:55:58;;;;;;;146.98;23.77;;;3.70;99.90;;;;;;5099127;28;20040;-62
2021/12/06 06:58:24;;;;;;;59.95;23.83;;;3.70;99.90;;;;;;5098811;28;20040;-62
2021/12/06 07:00:51;;;;;;;55.33;23.13;;;3.50;99.90;;;;;;5098795;28;20038;-62
2021/12/06 07:03:17;;;;;;;54.63;22.13;;;3.40;99.90;;;;;;5098637;28;20111;-63
2021/12/06 07:05:44;;;;;;;55.72;22.98;;;3.20;99.90;;;;;;5081062;28;20036;-62
2021/12/06 07:08:10;;;;;;;51.55;20.42;;;2.90;99.90;;;;;;5098691;28;20040;-65
2021/12/06 07:10:36;;;;;;;51.83;20.00;;;3.00;99.90;;;;;;5098636;28;20032;-62
2021/12/06 07:13:08;;;;;;;65.40;19.50;;;3.00;99.90;;;;;;5098563;28;20045;-62
2021/12/06 07:15:35;;;;;;;51.58;19.73;;;2.80;99.90;;;;;;5098649;28;20032;-63
2021/12/06 07:18:01;;;;;;;61.47;17.70;;;2.70;99.90;;;;;;5098293;28;20319;-62
2021/12/06 07:20:30;;;;;;;40.83;17.70;;;2.60;99.90;;;;;;5097246;28;20044;-63
2021/12/06 07:22:56;;;;;;;49.63;17.65;;;2.50;99.90;;;;;;5098351;28;20387;-60
2021/12/06 07:25:22;;;;;;;90.95;23.75;;;2.80;99.90;;;;;;5098617;28;20111;-62
2021/12/06 07:27:49;;;;;;;161.30;23.25;;;2.80;99.90;;;;;;5080630;28;20057;-63
2021/12/06 07:30:16;;;;;;;170.13;24.95;;;2.70;99.90;;;;;;5098588;28;20036;-64
2021/12/06 07:32:42;;;;;;;64.85;23.75;;;2.90;99.90;;;;;;5098597;28;20345;-64
2021/12/06 07:35:09;;;;;;;62.72;23.67;;;3.10;99.90;;;;;;5098183;28;20039;-63
2021/12/06 07:37:36;;;;;;;84.47;24.15;;;2.90;99.90;;;;;;5098329;28;20119;-64
2021/12/06 07:40:04;;;;;;;112.70;24.75;;;3.00;99.90;;;;;;5098071;28;20126;-64
2021/12/06 07:42:30;;;;;;;190.57;26.92;;;3.10;99.90;;;;;;5097807;28;20097;-64
2021/12/06 07:44:56;;;;;;;97.90;26.35;;;3.20;99.90;;;;;;5097780;28;20032;-64
2021/12/06 07:47:22;;;;;;;126.20;27.58;;;3.30;99.90;;;;;;5097786;28;20032;-64
2021/12/06 07:49:49;;;;;;;191.70;32.45;;;3.80;99.90;;;;;;5097632;28;20277;-64
2021/12/06 07:52:15;;;;;;;125.72;27.77;;;3.90;99.90;;;;;;5097042;28;20024;-64
2021/12/06 07:54:42;;;;;;;123.88;30.23;;;4.10;99.90;;;;;;5096845;28;20463;-64
2021/12/06 07:57:09;;;;;;;70.50;27.40;;;4.00;99.90;;;;;;5097432;28;20079;-64
2021/12/06 07:59:37;;;;;;;69.55;27.92;;;3.90;99.90;;;;;;5097362;28;20028;-64
2021/12/06 08:02:06;;;;;;;103.75;28.65;;;3.70;99.90;;;;;;5097611;28;20020;-65
2021/12/06 08:04:32;;;;;;;74.22;27.02;;;3.60;99.90;;;;;;5097564;28;20050;-65
2021/12/06 08:06:58;;;;;;;62.90;27.75;;;3.60;99.90;;;;;;5097589;28;20032;-65
2021/12/06 08:09:24;;;;;;;59.50;27.38;;;3.50;99.90;;;;;;5097460;28;20141;-66
2021/12/06 08:11:50;;;;;;;63.17;28.05;;;3.60;99.90;;;;;;5097573;28;20068;-64
2021/12/06 08:14:16;;;;;;;94.57;28.45;;;3.50;99.90;;;;;;5097372;28;20044;-64
2021/12/06 08:16:43;;;;;;;57.58;26.27;;;3.50;99.90;;;;;;5097168;28;20284;-64
2021/12/06 08:19:13;;;;;;;48.60;24.83;;;3.30;99.90;;;;;;5097225;28;20409;-65
2021/12/06 08:21:39;;;;;;;63.28;24.02;;;3.20;99.90;;;;;;5097344;28;20081;-65
2021/12/06 08:24:06;;;;;;;55.28;23.08;;;3.20;99.90;;;;;;5097248;28;20020;-64
2021/12/06 08:26:37;;;;;;;59.95;23.10;;;3.10;99.90;;;;;;5097173;28;20036;-64
2021/12/06 08:29:06;;;;;;;51.00;23.95;;;3.10;99.90;;;;;;5097266;28;20102;-64
2021/12/06 08:31:34;;;;;;;60.55;22.33;;;3.00;99.90;;;;;;5096331;28;20031;-64
2021/12/06 08:34:00;;;;;;;48.22;22.52;;;2.90;99.90;;;;;;5096811;28;20460;-63
2021/12/06 08:36:27;;;;;;;70.60;20.50;;;2.70;99.90;;;;;;5096538;28;20032;-63
2021/12/06 08:38:54;;;;;;;54.88;23.30;;;2.50;99.90;;;;;;5096269;28;20047;-64
2021/12/06 08:41:24;;;;;;;60.45;22.35;;;2.40;99.90;;;;;;5097082;28;20051;-63
2021/12/06 08:43:51;;;;;;;57.20;21.75;;;2.40;99.90;;;;;;5097085;28;20093;-64
2021/12/06 08:46:20;;;;;;;55.70;24.08;;;2.40;99.90;;;;;;5097000;28;20028;-65
2021/12/06 08:48:48;;;;;;;77.25;23.88;;;2.50;99.90;;;;;;5096349;28;20036;-65
2021/12/06 08:51:35;;;;;;;53.58;23.67;;;2.60;99.90;;;;;;5096987;28;20418;-65
2021/12/06 08:54:04;;;;;;;57.05;23.95;;;2.80;99.90;;;;;;5097596;28;20299;-64
2021/12/06 08:56:31;;;;;;;57.00;23.88;;;2.90;99.90;;;;;;5096370;28;20028;-63
2021/12/06 08:58:59;;;;;;;42.22;24.20;;;3.00;99.90;;;;;;5096064;28;20032;-64
2021/12/06 09:01:27;;;;;;;51.70;23.98;;;2.80;99.90;;;;;;5096219;28;20028;-64
2021/12/06 09:03:53;;;;;;;57.13;24.83;;;3.00;99.90;;;;;;5096900;28;20024;-64
2021/12/06 09:06:19;;;;;;;64.05;24.58;;;3.10;99.90;;;;;;5096821;28;20024;-64
2021/12/06 09:08:45;;;;;;;64.70;26.30;;;3.10;99.90;;;;;;5096786;28;20035;-64
2021/12/06 09:11:12;;;;;;;66.88;25.52;;;3.20;99.90;;;;;;5095954;28;20027;-64
2021/12/06 09:13:39;;;;;;;77.43;25.73;;;3.10;99.90;;;;;;5096852;28;20063;-65
2021/12/06 09:16:06;;;;;;;62.40;26.15;;;3.20;99.90;;;;;;5096077;28;20063;-65
2021/12/06 09:18:37;;;;;;;79.97;27.95;;;3.40;99.90;;;;;;5096655;28;20052;-64
2021/12/06 09:21:05;;;;;;;67.50;25.90;;;3.70;99.90;;;;;;5096701;28;20028;-63
2021/12/06 09:23:32;;;;;;;61.03;26.15;;;3.70;99.90;;;;;;5096118;28;20089;-64
2021/12/06 09:25:59;;;;;;;54.83;25.35;;;3.40;99.90;;;;;;5096823;28;20023;-64
2021/12/06 09:28:27;;;;;;;51.67;25.65;;;3.40;99.90;;;;;;5096956;28;20070;-64
2021/12/06 09:30:53;;;;;;;78.38;25.77;;;3.50;99.90;;;;;;5096605;28;20445;-64
2021/12/06 09:33:22;;;;;;;77.13;24.98;;;3.30;99.90;;;;;;5096588;28;20090;-64
2021/12/06 09:35:50;;;;;;;100.35;24.20;;;3.20;99.90;;;;;;5095777;28;20028;-65
2021/12/06 09:38:22;;;;;;;107.00;23.70;;;3.20;99.90;;;;;;5096666;28;20039;-64
2021/12/06 09:40:50;;;;;;;54.42;23.48;;;3.30;99.90;;;;;;5096505;28;20036;-63
2021/12/06 09:43:17;;;;;;;47.42;21.88;;;3.20;99.90;;;;;;5095784;28;20028;-64
2021/12/06 09:45:44;;;;;;;44.20;23.88;;;2.90;99.90;;;;;;5100271;28;20287;-63
2021/12/06 09:48:15;;;;;;;51.80;24.00;;;2.80;99.90;;;;;;5099477;28;20032;-63
2021/12/06 09:50:56;;;;;;;70.90;23.25;;;3.00;99.90;;;;;;5100144;28;20032;-63
2021/12/06 09:53:26;;;;;;;47.92;23.25;;;2.90;99.90;;;;;;5099819;28;20291;-64
2021/12/06 09:55:54;;;;;;;44.45;22.35;;;3.00;99.90;;;;;;5100108;28;20118;-63
2021/12/06 09:58:21;;;;;;;53.50;24.00;;;3.10;99.90;;;;;;5100041;28;20032;-64
2021/12/06 10:00:54;;;;;;;40.78;23.15;;;3.10;99.90;;;;;;5100252;28;20024;-64
2021/12/06 10:03:24;;;;;;;43.13;22.73;;;3.20;99.90;;;;;;5100573;28;20047;-64
2021/12/06 10:05:51;;;;;;;51.30;23.20;;;3.10;99.90;;;;;;5100230;28;20338;-64
2021/12/06 10:08:17;;;;;;;40.28;21.92;;;3.20;99.90;;;;;;5099948;28;20380;-61
2021/12/06 10:10:43;;;;;;;36.90;22.02;;;3.50;99.90;;;;;;5098920;28;20420;-62
2021/12/06 10:13:10;;;;;;;46.50;21.23;;;3.90;99.90;;;;;;5099910;28;20032;-64
2021/12/06 10:15:36;;;;;;;39.63;21.00;;;4.10;99.90;;;;;;5099071;28;20039;-65
2021/12/06 10:18:04;;;;;;;34.78;20.50;;;4.30;99.90;;;;;;5099501;28;20050;-63
2021/12/06 10:20:31;;;;;;;44.00;20.38;;;4.40;99.90;;;;;;5099631;28;20376;-63
2021/12/06 10:22:58;;;;;;;32.08;19.70;;;4.60;99.90;;;;;;5099719;28;20031;-63
2021/12/06 10:25:40;;;;;;;38.70;19.42;;;4.60;99.90;;;;;;5099579;28;20123;-64
2021/12/06 10:28:07;;;;;;;36.97;18.80;;;4.40;99.90;;;;;;5100207;28;20077;-63
2021/12/06 10:30:47;;;;;;;41.80;19.55;;;4.40;99.90;;;;;;5099400;28;20042;-63
2021/12/06 10:33:18;;;;;;;40.55;19.77;;;4.10;99.90;;;;;;5100024;28;20307;-64
2021/12/06 10:35:49;;;;;;;33.45;20.15;;;3.90;99.90;;;;;;5098933;28;20029;-64
2021/12/06 10:38:27;;;;;;;33.92;19.98;;;4.00;99.90;;;;;;5099857;28;20295;-63
2021/12/06 10:40:59;;;;;;;45.30;20.77;;;4.00;99.90;;;;;;5099185;28;20028;-64
2021/12/06 10:43:25;;;;;;;34.00;20.65;;;4.20;99.90;;;;;;5099089;28;20056;-63
2021/12/06 10:45:54;;;;;;;40.72;21.85;;;4.30;99.90;;;;;;5098889;28;20063;-62
2021/12/06 10:48:32;;;;;;;43.70;22.60;;;4.50;99.90;;;;;;5099056;28;20272;-64
2021/12/06 10:51:02;;;;;;;34.42;20.52;;;4.70;99.90;;;;;;5099079;28;20024;-64
2021/12/06 10:53:45;;;;;;;39.08;21.02;;;4.60;99.90;;;;;;5099102;28;20113;-64
2021/12/06 10:56:20;;;;;;;32.72;19.83;;;4.70;99.90;;;;;;5097177;28;20028;-64
2021/12/06 10:58:50;;;;;;;39.80;19.08;;;4.70;99.90;;;;;;5099439;28;20046;-64
2021/12/06 11:01:23;;;;;;;35.15;20.38;;;4.60;99.90;;;;;;5098031;28;20111;-64
2021/12/06 11:03:55;;;;;;;30.92;18.95;;;4.70;99.90;;;;;;5098694;28;20023;-62
2021/12/06 11:06:30;;;;;;;30.60;18.77;;;4.40;99.90;;;;;;5098670;28;20032;-64
2021/12/06 11:08:59;;;;;;;30.08;19.50;;;4.20;99.90;;;;;;5081144;28;20089;-63
2021/12/06 11:11:31;;;;;;;32.75;17.83;;;4.00;99.90;;;;;;5097801;28;20039;-64
2021/12/06 11:14:01;;;;;;;29.67;18.13;;;3.90;99.90;;;;;;5097896;28;20043;-64
2021/12/06 11:16:36;;;;;;;30.60;18.40;;;4.20;99.90;;;;;;5098344;28;20036;-65
2021/12/06 11:19:08;;;;;;;28.02;17.63;;;4.60;99.90;;;;;;5098014;28;20043;-64
2021/12/06 11:21:43;;;;;;;26.33;16.83;;;5.00;99.90;;;;;;5097686;28;20024;-63
2021/12/06 11:24:16;;;;;;;27.70;17.83;;;4.60;99.90;;;;;;5098480;28;20081;-63
2021/12/06 11:26:50;;;;;;;29.52;17.77;;;4.40;99.90;;;;;;5097650;28;20343;-64
2021/12/06 11:29:21;;;;;;;29.60;17.77;;;4.70;99.90;;;;;;5098726;28;20391;-63
2021/12/06 11:32:08;;;;;;;33.40;18.30;;;4.80;99.90;;;;;;5097638;28;20052;-65
2021/12/06 11:34:36;;;;;;;30.42;18.17;;;5.00;99.90;;;;;;5097367;28;20035;-64
2021/12/06 11:37:10;;;;;;;30.88;18.52;;;5.00;99.90;;;;;;5097352;28;20303;-63
2021/12/06 11:39:35;;;;;;;27.08;17.77;;;5.20;99.90;;;;;;5098108;28;20068;-64
2021/12/06 11:42:01;;;;;;;27.85;17.02;;;5.40;99.90;;;;;;5098069;28;20055;-64
2021/12/06 11:44:33;;;;;;;24.92;15.95;;;5.40;99.90;;;;;;5097708;28;20055;-64
2021/12/06 11:47:05;;;;;;;25.50;16.95;;;5.30;99.90;;;;;;5097187;28;20117;-65
2021/12/06 11:49:41;;;;;;;25.70;17.35;;;5.60;99.90;;;;;;5097098;28;20105;-64
2021/12/06 11:52:16;;;;;;;25.20;16.42;;;6.00;99.90;;;;;;5097776;28;20445;-62
2021/12/06 11:54:58;;;;;;;24.77;16.08;;;6.40;99.90;;;;;;5097006;28;20441;-64
2021/12/06 11:57:36;;;;;;;25.60;16.55;;;6.40;99.90;;;;;;5097764;28;20035;-64
2021/12/06 12:00:13;;;;;;;22.90;15.32;;;6.40;99.90;;;;;;5097559;28;20460;-63
2021/12/06 12:02:51;;;;;;;22.85;15.32;;;6.10;99.90;;;;;;5098226;28;20336;-63
2021/12/06 12:05:30;;;;;;;24.15;15.18;;;6.20;99.90;;;;;;5097537;28;20089;-63
2021/12/06 12:07:58;;;;;;;22.73;15.38;;;6.20;99.90;;;;;;5097449;28;20059;-63
2021/12/06 12:10:44;;;;;;;23.65;15.95;;;6.20;99.90;;;;;;5097497;28;20025;-63
2021/12/06 12:13:14;;;;;;;21.80;14.93;;;6.00;99.90;;;;;;5096717;28;20277;-63
2021/12/06 12:15:40;;;;;;;22.48;14.95;;;6.20;99.90;;;;;;5097443;28;20024;-63
2021/12/06 12:18:07;;;;;;;22.33;15.10;;;6.20;99.90;;;;;;5097366;28;20053;-62
2021/12/06 12:20:35;;;;;;;22.20;15.02;;;6.20;99.90;;;;;;5097379;28;20032;-62
2021/12/06 12:23:07;;;;;;;22.05;14.40;;;6.20;99.90;;;;;;5097888;28;20039;-63
2021/12/06 12:25:37;;;;;;;24.48;15.63;;;6.10;99.90;;;;;;5096440;28;20032;-63
2021/12/06 12:28:23;;;;;;;22.30;15.00;;;6.10;99.90;;;;;;5096527;28;20036;-63
2021/12/06 12:30:53;;;;;;;25.35;15.48;;;6.00;99.90;;;;;;5097092;28;20050;-66
2021/12/06 12:33:20;;;;;;;25.85;15.95;;;6.30;99.90;;;;;;5097063;28;20039;-62
2021/12/06 12:35:50;;;;;;;25.67;15.80;;;6.40;99.90;;;;;;5096982;28;20119;-63
2021/12/06 12:38:23;;;;;;;23.98;15.27;;;6.40;99.90;;;;;;5097242;28;20047;-62
2021/12/06 12:40:58;;;;;;;27.23;16.25;;;6.40;99.90;;;;;;5096936;28;20040;-63
2021/12/06 12:43:32;;;;;;;23.92;15.25;;;6.40;99.90;;;;;;5096989;28;20039;-63
2021/12/06 12:46:04;;;;;;;27.83;16.33;;;6.40;99.90;;;;;;5097102;28;20085;-62
2021/12/06 12:49:03;;;;;;;25.83;16.35;;;6.30;99.90;;;;;;5096927;28;20052;-58
2021/12/06 12:51:35;;;;;;;25.85;16.45;;;6.10;99.90;;;;;;5096374;28;20139;-58
2021/12/06 12:54:31;;;;;;;26.10;16.15;;;6.20;99.90;;;;;;5096251;28;20043;-59
2021/12/06 12:56:57;;;;;;;23.77;15.35;;;6.30;99.90;;;;;;5092236;28;20048;-58
2021/12/06 12:59:26;;;;;;;26.17;15.32;;;6.40;99.90;;;;;;5096655;28;20430;-58